createdAt,value
2022-10-21T00:00:55.547Z,97824.56
2022-10-21T00:03:26.475Z,97833.69
2022-10-21T00:05:54.786Z,97828.50
2022-10-21T00:08:22.690Z,97830.47
2022-10-21T00:10:59.592Z,97822.38
2022-10-21T00:13:29.615Z,97821.03
2022-10-21T00:16:10.887Z,97833.16
2022-10-21T00:18:40.387Z,97824.50
2022-10-21T00:21:16.949Z,97823.06
2022-10-21T00:23:44.759Z,97817.19
2022-10-21T00:26:13.823Z,97808.53
2022-10-21T00:28:42.262Z,97810.16
2022-10-21T00:31:11.981Z,97811.44
2022-10-21T00:33:39.498Z,97804.66
2022-10-21T00:36:08.278Z,97803.44
2022-10-21T00:38:36.438Z,97793.38
2022-10-21T00:41:03.812Z,97795.63
2022-10-21T00:43:31.270Z,97796.50
2022-10-21T00:46:05.238Z,97788.84
2022-10-21T00:48:39.568Z,97796.50
2022-10-21T00:51:14.437Z,97782.72
2022-10-21T00:53:46.936Z,97779.38
2022-10-21T00:56:24.442Z,97780.41
2022-10-21T00:58:54.798Z,97778.75
2022-10-21T01:01:22.180Z,97776.16
2022-10-21T01:03:50.861Z,97774.31
2022-10-21T01:06:23.153Z,97763.84
2022-10-21T01:08:54.649Z,97767.66
2022-10-21T01:11:24.349Z,97757.78
2022-10-21T01:14:48.903Z,97766.47
2022-10-21T01:17:47.304Z,97766.91
2022-10-21T01:20:54.763Z,97757.72
2022-10-21T01:27:06.641Z,97769.19
2022-10-21T01:30:06.627Z,97770.97
2022-10-21T01:32:51.978Z,97771.31
2022-10-21T01:36:09.504Z,97760.28
2022-10-21T01:39:18.028Z,97751.53
2022-10-21T01:42:00.567Z,97753.63
2022-10-21T01:44:49.234Z,97754.34
2022-10-21T01:47:37.620Z,97762.09
2022-10-21T01:50:25.173Z,97752.06
2022-10-21T01:53:00.412Z,97749.88
2022-10-21T01:55:32.083Z,97750.34
2022-10-21T01:58:09.474Z,97747.06
2022-10-21T02:00:39.001Z,97746.25
2022-10-21T02:03:11.899Z,97754.34
2022-10-21T02:05:40.321Z,97749.94
2022-10-21T02:08:07.999Z,97750.91
2022-10-21T02:10:45.812Z,97742.88
2022-10-21T02:13:22.753Z,97733.09
2022-10-21T02:15:56.325Z,97727.44
2022-10-21T02:18:26.872Z,97715.94
2022-10-21T02:21:03.174Z,97715.00
2022-10-21T02:23:54.865Z,97709.41
2022-10-21T02:26:28.056Z,97711.50
2022-10-21T02:28:58.358Z,97712.38
2022-10-21T02:32:21.714Z,97714.41
2022-10-21T02:35:25.371Z,97719.75
2022-10-21T02:38:40.554Z,97719.44
2022-10-21T02:41:20.647Z,97719.53
2022-10-21T02:44:01.653Z,97713.03
2022-10-21T02:46:38.085Z,97713.78
2022-10-21T02:49:05.554Z,97711.97
2022-10-21T02:51:32.857Z,97716.31
2022-10-21T02:54:00.028Z,97713.56
2022-10-21T02:58:55.214Z,97707.00
2022-10-21T03:01:22.668Z,97690.38
2022-10-21T03:03:49.866Z,97687.06
2022-10-21T03:06:17.078Z,97673.84
2022-10-21T03:08:44.450Z,97687.94
2022-10-21T03:11:11.772Z,97687.06
2022-10-21T03:13:38.986Z,97686.19
2022-10-21T03:16:06.930Z,97677.88
2022-10-21T03:18:34.293Z,97668.09
2022-10-21T03:21:01.576Z,97667.03
2022-10-21T03:23:29.053Z,97673.09
2022-10-21T03:25:56.231Z,97668.22
2022-10-21T03:28:23.491Z,97675.09
2022-10-21T03:30:50.639Z,97672.31
2022-10-21T03:33:17.801Z,97662.09
2022-10-21T03:35:45.481Z,97670.03
2022-10-21T03:38:12.699Z,97670.03
2022-10-21T03:40:40.009Z,97660.25
2022-10-21T03:43:07.300Z,97661.97
2022-10-21T03:45:34.608Z,97658.28
2022-10-21T03:48:01.857Z,97663.16
2022-10-21T03:50:29.253Z,97654.66
2022-10-21T03:52:56.753Z,97651.34
2022-10-21T03:55:25.384Z,97641.34
2022-10-21T03:57:53.847Z,97628.22
2022-10-21T04:00:21.504Z,97632.09
2022-10-21T04:02:48.960Z,97642.94
2022-10-21T04:05:16.785Z,97644.06
2022-10-21T04:07:46.080Z,97639.59
2022-10-21T04:10:15.460Z,97635.47
2022-10-21T04:12:42.676Z,97647.63
2022-10-21T04:15:14.248Z,97654.09
2022-10-21T04:17:45.021Z,97653.75
2022-10-21T04:20:12.285Z,97659.00
2022-10-21T04:22:39.806Z,97658.56
2022-10-21T04:25:09.409Z,97665.34
2022-10-21T04:27:36.902Z,97660.31
2022-10-21T04:30:05.071Z,97667.78
2022-10-21T04:32:32.264Z,97676.38
2022-10-21T04:34:59.492Z,97673.31
2022-10-21T04:37:26.723Z,97678.31
2022-10-21T04:39:53.934Z,97676.50
2022-10-21T04:42:21.258Z,97678.97
2022-10-21T04:44:48.491Z,97673.00
2022-10-21T04:47:16.012Z,97664.84
2022-10-21T04:49:43.297Z,97664.59
2022-10-21T04:52:10.687Z,97654.88
2022-10-21T04:54:37.925Z,97653.59
2022-10-21T04:57:05.388Z,97648.94
2022-10-21T04:59:32.902Z,97654.72
2022-10-21T05:04:32.342Z,97649.94
2022-10-21T05:06:59.642Z,97652.56
2022-10-21T05:09:26.821Z,97652.47
2022-10-21T05:11:54.099Z,97661.56
2022-10-21T05:14:22.712Z,97668.47
2022-10-21T05:16:50.528Z,97657.44
2022-10-21T05:19:18.068Z,97652.41
2022-10-21T05:21:47.134Z,97657.56
2022-10-21T05:24:16.166Z,97661.34
2022-10-21T05:26:43.516Z,97660.81
2022-10-21T05:29:10.796Z,97653.59
2022-10-21T05:31:38.102Z,97658.31
2022-10-21T05:34:05.328Z,97647.97
2022-10-21T05:36:32.558Z,97655.25
2022-10-21T05:38:59.852Z,97657.88
2022-10-21T05:41:27.179Z,97662.06
2022-10-21T05:43:54.443Z,97656.78
2022-10-21T05:46:21.671Z,97661.56
2022-10-21T05:51:26.393Z,97652.44
2022-10-21T05:53:54.648Z,97669.38
2022-10-21T05:56:22.470Z,97664.00
2022-10-21T05:58:51.539Z,97673.13
2022-10-21T06:01:18.980Z,97682.94
2022-10-21T06:03:46.234Z,97681.06
2022-10-21T06:06:13.438Z,97674.72
2022-10-21T06:08:40.897Z,97674.56
2022-10-21T06:11:19.834Z,97674.59
2022-10-21T06:13:47.972Z,97671.06
2022-10-21T06:16:16.918Z,97670.59
2022-10-21T06:18:44.507Z,97670.50
2022-10-21T06:21:12.459Z,97669.03
2022-10-21T06:23:39.875Z,97680.09
2022-10-21T06:26:12.226Z,97669.38
2022-10-21T06:28:43.279Z,97672.41
2022-10-21T06:31:15.375Z,97663.84
2022-10-21T06:33:42.915Z,97666.78
2022-10-21T06:36:10.546Z,97672.47
2022-10-21T06:38:38.397Z,97667.03
2022-10-21T06:41:13.309Z,97671.84
2022-10-21T06:43:42.661Z,97669.28
2022-10-21T06:46:13.998Z,97671.84
2022-10-21T06:48:41.849Z,97656.91
2022-10-21T06:51:20.023Z,97665.31
2022-10-21T06:53:52.246Z,97659.88
2022-10-21T06:56:20.091Z,97668.09
2022-10-21T06:58:49.298Z,97637.69
2022-10-21T07:01:34.367Z,97635.56
2022-10-21T07:04:04.015Z,97619.34
2022-10-21T07:09:06.233Z,97609.84
2022-10-21T07:11:33.581Z,97600.38
2022-10-21T07:14:01.871Z,97606.69
2022-10-21T07:16:33.696Z,97603.78
2022-10-21T07:19:01.002Z,97605.41
2022-10-21T07:21:30.848Z,97607.00
2022-10-21T07:24:00.206Z,97609.66
2022-10-21T07:26:31.600Z,97602.00
2022-10-21T07:29:00.748Z,97596.41
2022-10-21T07:31:31.411Z,97598.78
2022-10-21T07:34:00.702Z,97590.59
2022-10-21T07:36:32.112Z,97591.63
2022-10-21T07:39:04.417Z,97582.91
2022-10-21T07:41:37.232Z,97575.47
2022-10-21T07:44:06.741Z,97575.69
2022-10-21T07:46:34.819Z,97572.75
2022-10-21T07:49:02.175Z,97565.59
2022-10-21T07:51:31.338Z,97564.16
2022-10-21T07:54:00.525Z,97554.47
2022-10-21T07:56:35.673Z,97551.50
2022-10-21T07:59:07.778Z,97554.44
2022-10-21T08:01:40.493Z,97552.72
2022-10-21T08:04:07.890Z,97554.97
2022-10-21T08:06:35.714Z,97562.59
2022-10-21T08:09:04.806Z,97547.34
2022-10-21T08:11:34.378Z,97547.22
2022-10-21T08:14:03.256Z,97539.19
2022-10-21T08:16:30.603Z,97542.81
2022-10-21T08:19:00.972Z,97533.75
2022-10-21T08:21:31.261Z,97539.06
2022-10-21T08:24:02.138Z,97534.75
2022-10-21T08:26:29.872Z,97531.75
2022-10-21T08:31:29.335Z,97536.00
2022-10-21T08:33:56.572Z,97533.31
2022-10-21T08:36:26.128Z,97526.28
2022-10-21T08:38:54.404Z,97525.22
2022-10-21T08:41:30.878Z,97516.13
2022-10-21T08:44:06.903Z,97503.91
2022-10-21T08:46:42.436Z,97504.53
2022-10-21T08:49:51.084Z,97502.59
2022-10-21T08:52:50.603Z,97494.88
2022-10-21T08:55:36.002Z,97486.22
2022-10-21T08:58:04.583Z,97487.75
2022-10-21T09:00:43.126Z,97500.47
2022-10-21T09:03:31.817Z,97494.59
2022-10-21T09:06:04.502Z,97490.97
2022-10-21T09:08:41.808Z,97495.66
2022-10-21T09:11:33.399Z,97496.72
2022-10-21T09:14:40.288Z,97481.31
2022-10-21T09:17:35.403Z,97469.47
2022-10-21T09:20:27.588Z,97465.25
2022-10-21T09:23:28.475Z,97459.81
2022-10-21T09:26:35.403Z,97455.78
2022-10-21T09:29:24.677Z,97438.03
2022-10-21T09:31:56.259Z,97435.53
2022-10-21T09:35:19.814Z,97441.81
2022-10-21T09:37:50.716Z,97435.94
2022-10-21T09:40:28.605Z,97438.38
2022-10-21T09:43:02.227Z,97443.19
2022-10-21T09:45:46.263Z,97440.28
2022-10-21T09:48:19.135Z,97433.44
2022-10-21T09:51:17.728Z,97439.53
2022-10-21T09:53:57.167Z,97441.47
2022-10-21T09:56:36.118Z,97444.34
2022-10-21T09:59:14.931Z,97448.09
2022-10-21T10:01:43.907Z,97449.69
2022-10-21T10:04:24.693Z,97453.38
2022-10-21T10:06:52.451Z,97458.50
2022-10-21T10:09:37.596Z,97459.19
2022-10-21T10:12:14.976Z,97455.34
2022-10-21T10:14:45.673Z,97449.31
2022-10-21T10:17:26.128Z,97459.84
2022-10-21T10:20:05.784Z,97446.94
2022-10-21T10:23:05.092Z,97447.94
2022-10-21T10:25:36.186Z,97439.78
2022-10-21T10:28:09.305Z,97441.59
2022-10-21T10:30:42.441Z,97446.44
2022-10-21T10:33:31.260Z,97441.63
2022-10-21T10:36:09.588Z,97429.88
2022-10-21T10:38:45.213Z,97430.88
2022-10-21T10:41:16.938Z,97433.63
2022-10-21T10:43:54.385Z,97425.84
2022-10-21T10:46:43.909Z,97423.66
2022-10-21T10:49:14.188Z,97417.31
2022-10-21T10:51:42.631Z,97418.13
2022-10-21T10:54:28.323Z,97423.06
2022-10-21T10:57:15.736Z,97416.25
2022-10-21T10:59:51.647Z,97422.25
2022-10-21T11:02:49.641Z,97422.38
2022-10-21T11:05:25.865Z,97415.34
2022-10-21T11:07:59.409Z,97398.28
2022-10-21T11:10:34.036Z,97391.75
2022-10-21T11:13:10.027Z,97389.47
2022-10-21T11:15:55.799Z,97395.56
2022-10-21T11:18:38.051Z,97389.81
2022-10-21T11:21:52.925Z,97377.09
2022-10-21T11:24:32.563Z,97369.53
2022-10-21T11:27:07.397Z,97356.78
2022-10-21T11:29:59.488Z,97361.94
2022-10-21T11:32:53.671Z,97356.31
2022-10-21T11:35:45.741Z,97351.72
2022-10-21T11:38:44.087Z,97355.41
2022-10-21T11:41:43.955Z,97345.41
2022-10-21T11:44:42.764Z,97334.28
2022-10-21T11:47:49.803Z,97339.25
2022-10-21T11:50:59.507Z,97349.75
2022-10-21T11:53:50.538Z,97344.06
2022-10-21T11:56:58.206Z,97333.16
2022-10-21T11:59:57.971Z,97345.28
2022-10-21T12:02:40.775Z,97342.50
2022-10-21T12:05:59.546Z,97335.34
2022-10-21T12:09:20.066Z,97316.50
2022-10-21T12:12:17.592Z,97296.06
2022-10-21T12:15:00.262Z,97288.66
2022-10-21T12:17:27.634Z,97290.56
2022-10-21T12:20:01.879Z,97298.44
2022-10-21T12:22:33.225Z,97304.59
2022-10-21T12:25:12.422Z,97301.81
2022-10-21T12:27:53.783Z,97314.31
2022-10-21T12:30:56.852Z,97311.47
2022-10-21T12:33:37.233Z,97292.13
2022-10-21T12:36:16.083Z,97295.31
2022-10-21T12:38:49.513Z,97297.03
2022-10-21T12:41:39.015Z,97293.22
2022-10-21T12:44:37.998Z,97290.34
2022-10-21T12:47:21.274Z,97290.94
2022-10-21T12:50:30.045Z,97281.66
2022-10-21T12:53:33.217Z,97276.63
2022-10-21T12:56:01.351Z,97281.97
2022-10-21T12:58:45.781Z,97280.81
2022-10-21T13:01:43.138Z,97268.34
2022-10-21T13:04:33.502Z,97271.19
2022-10-21T13:07:16.857Z,97274.00
2022-10-21T13:10:09.720Z,97283.56
2022-10-21T13:12:37.500Z,97287.66
2022-10-21T13:15:23.272Z,97296.84
2022-10-21T13:17:54.265Z,97289.84
2022-10-21T13:20:21.453Z,97284.47
2022-10-21T13:23:01.929Z,97291.72
2022-10-21T13:25:36.284Z,97287.66
2022-10-21T13:28:12.732Z,97288.72
2022-10-21T13:30:58.865Z,97281.47
2022-10-21T13:33:31.611Z,97291.94
2022-10-21T13:36:13.465Z,97294.69
2022-10-21T13:38:55.521Z,97286.44
2022-10-21T13:41:30.239Z,97289.47
2022-10-21T13:44:05.623Z,97295.09
2022-10-21T13:46:39.177Z,97291.06
2022-10-21T13:49:32.731Z,97296.59
2022-10-21T13:52:00.056Z,97298.47
2022-10-21T13:54:34.176Z,97299.28
2022-10-21T13:57:07.720Z,97291.47
2022-10-21T13:59:35.043Z,97299.00
2022-10-21T14:02:03.681Z,97289.16
2022-10-21T14:04:39.481Z,97289.16
2022-10-21T14:07:16.633Z,97289.75
2022-10-21T14:09:55.135Z,97287.88
2022-10-21T14:12:33.504Z,97285.22
2022-10-21T14:15:15.838Z,97288.75
2022-10-21T14:17:50.287Z,97288.28
2022-10-21T14:20:34.076Z,97292.00
2022-10-21T14:23:08.677Z,97292.38
2022-10-21T14:25:36.212Z,97292.47
2022-10-21T14:28:05.278Z,97296.03
2022-10-21T14:30:34.896Z,97290.47
2022-10-21T14:33:05.194Z,97296.28
2022-10-21T14:35:32.459Z,97301.66
2022-10-21T14:38:03.305Z,97305.03
2022-10-21T14:40:39.700Z,97302.63
2022-10-21T14:43:20.534Z,97293.53
2022-10-21T14:45:53.805Z,97297.19
2022-10-21T14:48:53.789Z,97297.63
2022-10-21T14:51:22.998Z,97301.94
2022-10-21T14:54:05.244Z,97303.47
2022-10-21T14:56:43.335Z,97307.91
2022-10-21T14:59:32.197Z,97307.06
2022-10-21T15:02:01.212Z,97314.94
2022-10-21T15:04:43.741Z,97312.34
2022-10-21T15:07:33.657Z,97316.91
2022-10-21T15:10:04.250Z,97315.81
2022-10-21T15:12:47.863Z,97333.56
2022-10-21T15:15:54.008Z,97333.03
2022-10-21T15:18:43.913Z,97334.69
2022-10-21T15:21:47.155Z,97340.63
2022-10-21T15:24:44.313Z,97346.53
2022-10-21T15:27:37.153Z,97346.09
2022-10-21T15:30:32.259Z,97340.19
2022-10-21T15:32:59.605Z,97348.44
2022-10-21T15:35:26.858Z,97341.56
2022-10-21T15:37:54.819Z,97350.09
2022-10-21T15:40:22.736Z,97345.34
2022-10-21T15:42:50.535Z,97351.72
2022-10-21T15:45:22.984Z,97346.13
2022-10-21T15:47:54.892Z,97348.06
2022-10-21T15:50:26.684Z,97355.19
2022-10-21T15:55:26.505Z,97340.19
2022-10-21T15:57:53.720Z,97342.31
2022-10-21T16:00:23.398Z,97332.28
2022-10-21T16:02:51.955Z,97336.22
2022-10-21T16:05:21.563Z,97325.34
2022-10-21T16:07:49.128Z,97315.34
2022-10-21T16:10:25.635Z,97314.75
2022-10-21T16:12:53.430Z,97315.41
2022-10-21T16:15:22.096Z,97316.84
2022-10-21T16:17:53.906Z,97319.03
2022-10-21T16:20:26.365Z,97312.47
2022-10-21T16:22:53.982Z,97318.59
2022-10-21T16:25:21.411Z,97326.84
2022-10-21T16:27:56.183Z,97336.13
2022-10-21T16:30:35.617Z,97337.75
2022-10-21T16:33:02.857Z,97336.66
2022-10-21T16:35:30.086Z,97358.06
2022-10-21T16:37:57.456Z,97361.47
2022-10-21T16:40:31.977Z,97362.06
2022-10-21T16:42:59.353Z,97371.38
2022-10-21T16:45:33.522Z,97368.50
2022-10-21T16:48:05.428Z,97379.09
2022-10-21T16:50:45.097Z,97389.03
2022-10-21T16:53:17.088Z,97379.75
2022-10-21T16:55:44.426Z,97388.28
2022-10-21T16:58:11.646Z,97393.91
2022-10-21T17:00:38.950Z,97396.56
2022-10-21T17:03:06.358Z,97401.06
2022-10-21T17:08:06.576Z,97405.56
2022-10-21T17:10:33.993Z,97406.84
2022-10-21T17:13:01.695Z,97399.47
2022-10-21T17:15:29.147Z,97404.25
2022-10-21T17:17:56.488Z,97411.66
2022-10-21T17:20:24.075Z,97404.25
2022-10-21T17:22:51.311Z,97407.97
2022-10-21T17:25:18.650Z,97411.69
2022-10-21T17:27:46.260Z,97409.56
2022-10-21T17:30:13.528Z,97407.19
2022-10-21T17:35:18.790Z,97405.09
2022-10-21T17:37:51.630Z,97389.22
2022-10-21T17:40:23.939Z,97383.19
2022-10-21T17:42:51.283Z,97385.00
2022-10-21T17:45:22.576Z,97375.53
2022-10-21T17:47:50.914Z,97369.69
2022-10-21T17:50:23.669Z,97368.41
2022-10-21T17:52:54.490Z,97366.59
2022-10-21T17:55:22.444Z,97356.53
2022-10-21T17:57:50.184Z,97350.47
2022-10-21T18:00:17.572Z,97351.84
2022-10-21T18:02:44.925Z,97355.28
2022-10-21T18:05:12.281Z,97342.31
2022-10-21T18:07:39.754Z,97344.72
2022-10-21T18:10:08.244Z,97332.81
2022-10-21T18:12:35.775Z,97342.03
2022-10-21T18:15:03.924Z,97331.44
2022-10-21T18:17:32.579Z,97323.28
2022-10-21T18:19:59.854Z,97320.38
2022-10-21T18:22:27.162Z,97308.69
2022-10-21T18:24:54.478Z,97305.50
2022-10-21T18:27:21.908Z,97298.16
2022-10-21T18:29:49.271Z,97284.44
2022-10-21T18:32:16.603Z,97287.31
2022-10-21T18:34:43.840Z,97280.88
2022-10-21T18:37:11.094Z,97277.88
2022-10-21T18:39:38.440Z,97267.56
2022-10-21T18:42:05.767Z,97264.72
2022-10-21T18:44:33.005Z,97266.19
2022-10-21T18:47:00.238Z,97272.00
2022-10-21T18:49:27.461Z,97268.28
2022-10-21T18:51:54.687Z,97257.72
2022-10-21T18:54:22.135Z,97261.72
2022-10-21T18:56:49.402Z,97258.06
2022-10-21T18:59:16.644Z,97249.88
2022-10-21T19:01:44.105Z,97242.53
2022-10-21T19:06:46.807Z,97236.25
2022-10-21T19:09:22.721Z,97248.19
2022-10-21T19:11:50.314Z,97253.25
2022-10-21T19:14:17.830Z,97251.38
2022-10-21T19:16:47.949Z,97253.25
2022-10-21T19:19:16.457Z,97248.72
2022-10-21T19:21:43.838Z,97271.00
2022-10-21T19:24:11.197Z,97272.09
2022-10-21T19:26:41.079Z,97276.31
2022-10-21T19:29:16.244Z,97276.31
2022-10-21T19:31:44.789Z,97286.13
2022-10-21T19:34:22.468Z,97278.19
2022-10-21T19:36:50.102Z,97276.81
2022-10-21T19:39:17.725Z,97269.97
2022-10-21T19:41:45.242Z,97259.13
2022-10-21T19:44:12.807Z,97257.25
2022-10-21T19:46:40.151Z,97251.19
2022-10-21T19:49:09.201Z,97252.53
2022-10-21T19:51:37.618Z,97253.31
2022-10-21T19:54:07.372Z,97267.84
2022-10-21T19:56:35.259Z,97266.81
2022-10-21T19:59:03.239Z,97260.16
2022-10-21T20:01:32.342Z,97264.94
2022-10-21T20:04:02.009Z,97253.56
2022-10-21T20:06:37.743Z,97258.84
2022-10-21T20:09:10.390Z,97268.06
2022-10-21T20:11:39.682Z,97271.31
2022-10-21T20:14:07.631Z,97267.06
2022-10-21T20:16:38.850Z,97287.94
2022-10-21T20:19:06.905Z,97300.91
2022-10-21T20:21:35.602Z,97311.53
2022-10-21T20:24:03.365Z,97307.03
2022-10-21T20:26:30.999Z,97309.41
2022-10-21T20:29:00.898Z,97301.75
2022-10-21T20:31:29.095Z,97309.69
2022-10-21T20:33:56.637Z,97306.00
2022-10-21T20:36:30.497Z,97310.22
2022-10-21T20:38:59.925Z,97304.16
2022-10-21T20:41:34.919Z,97302.03
2022-10-21T20:44:06.867Z,97306.00
2022-10-21T20:46:37.277Z,97298.06
2022-10-21T20:49:07.350Z,97296.22
2022-10-21T20:51:37.297Z,97278.78
2022-10-21T20:54:09.656Z,97281.16
2022-10-21T20:56:40.147Z,97283.28
2022-10-21T20:59:10.735Z,97281.16
2022-10-21T21:01:42.055Z,97267.97
2022-10-21T21:04:14.303Z,97274.31
2022-10-21T21:06:47.952Z,97265.34
2022-10-21T21:12:04.702Z,97266.91
2022-10-21T21:14:32.288Z,97274.31
2022-10-21T21:16:59.589Z,97273.25
2022-10-21T21:19:26.911Z,97281.91
2022-10-21T21:21:54.442Z,97277.94
2022-10-21T21:24:21.794Z,97272.94
2022-10-21T21:26:49.168Z,97275.56
2022-10-21T21:29:16.459Z,97286.88
2022-10-21T21:31:43.965Z,97287.94
2022-10-21T21:34:11.949Z,97283.47
2022-10-21T21:36:39.351Z,97279.00
2022-10-21T21:39:08.020Z,97283.78
2022-10-21T21:41:36.078Z,97278.25
2022-10-21T21:44:06.023Z,97283.25
2022-10-21T21:46:33.371Z,97280.34
2022-10-21T21:49:05.571Z,97280.81
2022-10-21T21:51:36.272Z,97295.53
2022-10-21T21:54:06.816Z,97296.56
2022-10-21T21:56:34.271Z,97292.66
2022-10-21T21:59:01.777Z,97278.72
2022-10-21T22:01:30.113Z,97289.53
2022-10-21T22:03:58.537Z,97271.09
2022-10-21T22:06:30.121Z,97262.69
2022-10-21T22:08:57.663Z,97256.59
2022-10-21T22:11:29.553Z,97249.19
2022-10-21T22:13:57.061Z,97242.34
2022-10-21T22:16:27.452Z,97247.84
2022-10-21T22:18:55.052Z,97246.69
2022-10-21T22:21:22.910Z,97241.44
2022-10-21T22:23:51.569Z,97243.50
2022-10-21T22:26:23.230Z,97233.50
2022-10-21T22:28:50.564Z,97239.28
2022-10-21T22:31:19.366Z,97236.13
2022-10-21T22:33:47.050Z,97230.84
2022-10-21T22:36:16.590Z,97227.66
2022-10-21T22:38:45.357Z,97220.53
2022-10-21T22:41:13.685Z,97220.53
2022-10-21T22:43:42.862Z,97217.91
2022-10-21T22:48:58.151Z,97215.72
2022-10-21T22:51:25.610Z,97222.00
2022-10-21T22:53:55.459Z,97207.47
2022-10-21T22:56:26.090Z,97219.06
2022-10-21T22:58:53.546Z,97217.22
2022-10-21T23:01:21.096Z,97236.44
2022-10-21T23:03:48.318Z,97237.97
2022-10-21T23:06:15.755Z,97231.94
2022-10-21T23:08:43.127Z,97233.81
2022-10-21T23:11:10.395Z,97230.94
2022-10-21T23:13:37.569Z,97231.78
2022-10-21T23:16:05.373Z,97227.56
2022-10-21T23:18:33.666Z,97223.13
2022-10-21T23:21:00.877Z,97224.75
2022-10-21T23:23:28.334Z,97217.09
2022-10-21T23:25:55.672Z,97212.13
2022-10-21T23:28:22.864Z,97221.34
2022-10-21T23:30:50.204Z,97222.16
2022-10-21T23:33:17.405Z,97218.19
2022-10-21T23:35:44.744Z,97223.72
2022-10-21T23:38:12.007Z,97227.69
2022-10-21T23:40:39.396Z,97226.59
2022-10-21T23:43:06.569Z,97220.81
2022-10-21T23:45:33.815Z,97230.06
2022-10-21T23:48:01.452Z,97215.78
2022-10-21T23:50:28.987Z,97212.69
2022-10-21T23:52:56.207Z,97218.75
2022-10-21T23:55:23.465Z,97218.75
2022-10-21T23:57:50.735Z,97223.47
